createdAt,value
2018-01-19T00:00:45.690Z,4.07
2018-01-19T00:03:14.527Z,4.35
2018-01-19T00:05:42.639Z,4.00
2018-01-19T00:08:10.667Z,4.18
2018-01-19T00:10:38.713Z,4.20
2018-01-19T00:13:06.788Z,4.60
2018-01-19T00:15:34.852Z,4.80
2018-01-19T00:18:02.914Z,4.78
2018-01-19T00:20:30.978Z,4.00
2018-01-19T00:22:59.046Z,4.72
2018-01-19T00:25:27.116Z,4.47
2018-01-19T00:27:55.178Z,4.50
2018-01-19T00:30:24.019Z,5.12
2018-01-19T00:32:52.080Z,5.60
2018-01-19T00:35:20.146Z,5.32
2018-01-19T00:37:48.212Z,5.47
2018-01-19T00:40:16.293Z,4.85
2018-01-19T00:42:44.346Z,5.72
2018-01-19T00:45:12.410Z,5.70
2018-01-19T00:47:40.515Z,5.00
2018-01-19T00:50:08.579Z,6.47
2018-01-19T00:52:36.646Z,4.95
2018-01-19T00:55:04.746Z,5.75
2018-01-19T00:57:55.742Z,5.62
2018-01-19T01:00:23.802Z,5.22
2018-01-19T01:02:51.865Z,4.82
2018-01-19T01:05:19.934Z,5.53
2018-01-19T01:07:48.000Z,6.43
2018-01-19T01:10:16.063Z,7.95
2018-01-19T01:12:44.120Z,7.07
2018-01-19T01:15:12.180Z,6.87
2018-01-19T01:17:40.245Z,6.18
2018-01-19T01:20:09.065Z,7.07
2018-01-19T01:22:37.138Z,7.55
2018-01-19T01:25:05.215Z,7.28
2018-01-19T01:27:33.296Z,7.20
2018-01-19T01:30:01.358Z,8.77
2018-01-19T01:32:29.422Z,7.72
2018-01-19T01:34:57.480Z,8.57
2018-01-19T01:37:25.549Z,7.82
2018-01-19T01:39:53.597Z,7.40
2018-01-19T01:42:21.661Z,7.95
2018-01-19T01:44:50.493Z,7.87
2018-01-19T01:47:18.549Z,7.00
2018-01-19T01:49:46.622Z,7.37
2018-01-19T01:52:14.677Z,8.40
2018-01-19T01:54:42.737Z,7.35
2018-01-19T01:57:11.570Z,6.57
2018-01-19T01:59:39.632Z,6.40
2018-01-19T02:02:07.702Z,6.32
2018-01-19T02:04:35.762Z,5.43
2018-01-19T02:07:03.832Z,6.53
2018-01-19T02:09:31.889Z,6.12
2018-01-19T02:11:59.937Z,7.00
2018-01-19T02:14:28.787Z,5.43
2018-01-19T02:16:56.843Z,5.68
2018-01-19T02:19:24.924Z,5.60
2018-01-19T02:21:53.029Z,4.37
2018-01-19T02:24:21.089Z,5.90
2018-01-19T02:26:49.150Z,5.45
2018-01-19T02:29:17.228Z,5.43
2018-01-19T02:31:45.298Z,4.65
2018-01-19T02:34:13.362Z,4.40
2018-01-19T02:36:41.417Z,4.55
2018-01-19T02:39:09.490Z,3.90
2018-01-19T02:41:37.554Z,4.25
2018-01-19T02:44:05.612Z,4.15
2018-01-19T02:46:33.673Z,4.00
2018-01-19T02:49:01.754Z,4.37
2018-01-19T02:51:29.803Z,3.53
2018-01-19T02:53:57.878Z,4.00
2018-01-19T02:56:25.953Z,4.10
2018-01-19T02:58:54.011Z,4.68
2018-01-19T03:01:22.079Z,4.82
2018-01-19T03:03:50.900Z,5.15
2018-01-19T03:06:18.973Z,4.43
2018-01-19T03:08:47.026Z,5.07
2018-01-19T03:11:15.085Z,4.95
2018-01-19T03:13:43.206Z,3.90
2018-01-19T03:16:11.280Z,3.83
2018-01-19T03:18:39.326Z,4.03
2018-01-19T03:21:07.394Z,4.37
2018-01-19T03:23:35.453Z,4.47
2018-01-19T03:26:03.518Z,3.92
2018-01-19T03:28:31.579Z,4.20
2018-01-19T03:30:59.652Z,4.05
2018-01-19T03:33:27.709Z,3.85
2018-01-19T03:35:55.786Z,3.95
2018-01-19T03:38:23.825Z,3.47
2018-01-19T03:40:52.654Z,3.45
2018-01-19T03:43:20.770Z,4.15
2018-01-19T03:45:48.833Z,4.55
2018-01-19T03:48:16.918Z,4.90
2018-01-19T03:50:44.964Z,4.12
2018-01-19T03:53:13.037Z,5.03
2018-01-19T03:55:41.087Z,4.15
2018-01-19T03:58:09.145Z,3.85
2018-01-19T04:00:37.206Z,4.00
2018-01-19T04:03:05.268Z,3.50
2018-01-19T04:05:33.321Z,3.83
2018-01-19T04:08:02.156Z,4.00
2018-01-19T04:10:30.210Z,3.97
2018-01-19T04:12:58.278Z,3.37
2018-01-19T04:15:26.371Z,3.60
2018-01-19T04:17:54.446Z,3.58
2018-01-19T04:20:22.500Z,3.28
2018-01-19T04:22:50.571Z,3.85
2018-01-19T04:25:18.626Z,4.00
2018-01-19T04:27:46.686Z,4.95
2018-01-19T04:30:15.518Z,4.30
2018-01-19T04:32:43.574Z,4.40
2018-01-19T04:35:12.579Z,4.62
2018-01-19T04:37:40.640Z,4.50
2018-01-19T04:40:08.716Z,5.20
2018-01-19T04:42:36.775Z,3.50
2018-01-19T04:45:04.833Z,4.15
2018-01-19T04:47:32.890Z,4.40
2018-01-19T04:50:01.728Z,4.03
2018-01-19T04:52:29.782Z,4.82
2018-01-19T04:54:57.894Z,4.62
2018-01-19T04:57:25.899Z,3.22
2018-01-19T04:59:53.965Z,4.80
2018-01-19T05:02:22.035Z,6.03
2018-01-19T05:04:50.096Z,5.10
2018-01-19T05:07:18.923Z,4.50
2018-01-19T05:09:46.989Z,4.95
2018-01-19T05:12:15.050Z,3.78
2018-01-19T05:14:43.110Z,3.80
2018-01-19T05:17:11.166Z,3.17
2018-01-19T05:19:39.994Z,4.10
2018-01-19T05:22:08.067Z,4.37
2018-01-19T05:24:36.131Z,4.20
2018-01-19T05:27:04.193Z,4.00
2018-01-19T05:29:32.246Z,3.62
2018-01-19T05:32:00.302Z,3.35
2018-01-19T05:34:29.129Z,3.70
2018-01-19T05:36:57.195Z,3.40
2018-01-19T05:39:25.247Z,3.70
2018-01-19T05:41:53.304Z,3.05
2018-01-19T05:44:22.125Z,3.85
2018-01-19T05:46:50.187Z,4.25
2018-01-19T05:49:18.237Z,4.85
2018-01-19T05:51:46.319Z,3.85
2018-01-19T05:54:14.390Z,3.67
2018-01-19T05:56:42.454Z,4.53
2018-01-19T05:59:10.520Z,3.92
2018-01-19T06:01:39.346Z,3.65
2018-01-19T06:04:07.410Z,4.72
2018-01-19T06:06:35.469Z,3.47
2018-01-19T06:09:03.527Z,3.95
2018-01-19T06:11:31.586Z,4.55
2018-01-19T06:13:59.655Z,5.12
2018-01-19T06:16:28.482Z,4.70
2018-01-19T06:18:56.541Z,4.45
2018-01-19T06:21:24.597Z,5.18
2018-01-19T06:23:52.662Z,4.20
2018-01-19T06:26:20.717Z,4.15
2018-01-19T06:28:49.555Z,4.85
2018-01-19T06:31:17.622Z,4.47
2018-01-19T06:33:45.696Z,5.72
2018-01-19T06:36:13.745Z,4.43
2018-01-19T06:38:42.597Z,3.92
2018-01-19T06:41:11.422Z,4.18
2018-01-19T06:43:39.497Z,4.70
2018-01-19T06:46:07.558Z,5.25
2018-01-19T06:48:35.613Z,4.78
2018-01-19T06:51:03.680Z,4.85
2018-01-19T06:53:32.508Z,5.32
2018-01-19T06:56:00.573Z,4.75
2018-01-19T06:58:28.639Z,5.35
2018-01-19T07:00:56.706Z,5.70
2018-01-19T07:03:24.783Z,5.20
2018-01-19T07:05:52.828Z,5.72
2018-01-19T07:08:20.885Z,5.32
2018-01-19T07:10:49.709Z,5.20
2018-01-19T07:13:17.776Z,5.60
2018-01-19T07:15:45.847Z,5.80
2018-01-19T07:18:13.907Z,5.55
2018-01-19T07:20:41.994Z,5.65
2018-01-19T07:23:10.055Z,5.40
2018-01-19T07:25:38.125Z,7.47
2018-01-19T07:28:06.185Z,5.87
2018-01-19T07:30:34.242Z,5.85
2018-01-19T07:33:03.066Z,5.28
2018-01-19T07:35:31.150Z,5.80
2018-01-19T07:37:59.218Z,5.93
2018-01-19T07:40:27.674Z,5.87
2018-01-19T07:42:55.744Z,5.20
2018-01-19T07:45:23.808Z,6.32
2018-01-19T07:47:51.864Z,5.35
2018-01-19T07:50:20.702Z,5.50
2018-01-19T07:52:48.762Z,5.80
2018-01-19T07:55:16.828Z,5.90
2018-01-19T07:57:44.891Z,6.43
2018-01-19T08:00:12.955Z,6.22
2018-01-19T08:02:41.026Z,6.45
2018-01-19T08:05:09.095Z,6.43
2018-01-19T08:07:37.169Z,6.57
2018-01-19T08:10:05.222Z,6.07
2018-01-19T08:12:33.294Z,5.85
2018-01-19T08:15:01.427Z,6.05
2018-01-19T08:17:29.484Z,6.25
2018-01-19T08:19:57.559Z,5.18
2018-01-19T08:22:25.630Z,6.25
2018-01-19T08:24:53.685Z,6.97
2018-01-19T08:27:21.759Z,5.95
2018-01-19T08:29:49.837Z,6.78
2018-01-19T08:32:17.897Z,6.50
2018-01-19T08:34:45.962Z,6.15
2018-01-19T08:37:14.020Z,5.97
2018-01-19T08:39:42.090Z,5.87
2018-01-19T08:42:10.151Z,5.78
2018-01-19T08:44:38.218Z,6.43
2018-01-19T08:47:06.277Z,6.10
2018-01-19T08:49:34.345Z,6.18
2018-01-19T08:52:02.414Z,6.03
2018-01-19T08:54:31.264Z,6.20
2018-01-19T08:56:59.316Z,6.53
2018-01-19T08:59:27.386Z,6.30
2018-01-19T09:01:55.449Z,6.22
2018-01-19T09:04:23.509Z,5.97
2018-01-19T09:06:51.592Z,5.65
2018-01-19T09:09:19.655Z,6.85
2018-01-19T09:11:47.729Z,7.10
2018-01-19T09:14:15.785Z,6.40
2018-01-19T09:16:43.851Z,6.18
2018-01-19T09:19:11.924Z,6.85
2018-01-19T09:21:39.989Z,6.70
2018-01-19T09:24:08.050Z,5.72
2018-01-19T09:26:36.131Z,7.05
2018-01-19T09:29:04.203Z,6.20
2018-01-19T09:31:32.271Z,6.10
2018-01-19T09:34:00.442Z,7.32
2018-01-19T09:36:28.519Z,6.60
2018-01-19T09:38:56.571Z,6.85
2018-01-19T09:41:25.075Z,5.82
2018-01-19T09:43:53.143Z,6.53
2018-01-19T09:46:21.218Z,6.82
2018-01-19T09:48:49.288Z,7.07
2018-01-19T09:51:17.354Z,6.47
2018-01-19T09:53:45.414Z,7.10
2018-01-19T09:56:13.474Z,6.85
2018-01-19T09:58:42.351Z,6.82
2018-01-19T10:01:11.178Z,6.80
2018-01-19T10:03:39.247Z,6.00
2018-01-19T10:06:07.312Z,6.95
2018-01-19T10:08:35.371Z,6.60
2018-01-19T10:11:03.444Z,6.43
2018-01-19T10:13:31.562Z,6.28
2018-01-19T10:15:59.592Z,7.20
2018-01-19T10:18:27.667Z,6.43
2018-01-19T10:20:55.739Z,7.03
2018-01-19T10:23:23.819Z,6.70
2018-01-19T10:25:51.882Z,5.90
2018-01-19T10:28:19.947Z,7.03
2018-01-19T10:30:48.008Z,5.87
2018-01-19T10:33:16.069Z,6.00
2018-01-19T10:35:44.156Z,7.07
2018-01-19T10:38:12.235Z,7.45
2018-01-19T10:40:40.307Z,9.27
2018-01-19T10:43:08.382Z,6.85
2018-01-19T10:45:36.446Z,7.65
2018-01-19T10:48:04.521Z,7.62
2018-01-19T10:50:32.610Z,6.47
2018-01-19T10:53:00.686Z,6.65
2018-01-19T10:55:28.761Z,6.60
2018-01-19T10:57:56.819Z,6.18
2018-01-19T11:00:24.893Z,7.32
2018-01-19T11:02:52.969Z,6.47
2018-01-19T11:05:21.047Z,6.07
2018-01-19T11:07:49.115Z,6.32
2018-01-19T11:10:17.185Z,5.30
2018-01-19T11:12:45.255Z,7.30
2018-01-19T11:15:13.326Z,7.53
2018-01-19T11:17:41.398Z,6.72
2018-01-19T11:20:09.491Z,6.60
2018-01-19T11:22:38.333Z,7.95
2018-01-19T11:25:06.407Z,8.13
2018-01-19T11:27:34.473Z,7.93
2018-01-19T11:30:02.551Z,8.65
2018-01-19T11:32:30.622Z,7.68
2018-01-19T11:34:58.695Z,9.05
2018-01-19T11:37:26.763Z,8.43
2018-01-19T11:39:54.882Z,8.75
2018-01-19T11:42:23.733Z,8.98
2018-01-19T11:44:51.797Z,9.93
2018-01-19T11:47:19.859Z,9.32
2018-01-19T11:49:47.933Z,9.52
2018-01-19T11:52:16.002Z,10.18
2018-01-19T11:54:44.079Z,9.02
2018-01-19T11:57:12.155Z,10.20
2018-01-19T11:59:40.223Z,10.43
2018-01-19T12:02:08.300Z,9.95
2018-01-19T12:04:36.370Z,9.25
2018-01-19T12:07:04.437Z,9.30
2018-01-19T12:09:32.528Z,9.25
2018-01-19T12:12:00.611Z,9.50
2018-01-19T12:14:29.464Z,9.65
2018-01-19T12:16:57.534Z,9.50
2018-01-19T12:19:25.619Z,9.25
2018-01-19T12:21:53.691Z,10.48
2018-01-19T12:24:21.765Z,9.07
2018-01-19T12:26:49.831Z,9.25
2018-01-19T12:29:17.902Z,10.05
2018-01-19T12:31:45.989Z,9.68
2018-01-19T12:34:14.822Z,9.45
2018-01-19T12:36:42.899Z,10.15
2018-01-19T12:39:10.963Z,9.93
2018-01-19T12:41:39.037Z,11.40
2018-01-19T12:44:07.110Z,9.90
2018-01-19T12:46:35.215Z,15.63
2018-01-19T12:49:03.273Z,8.70
2018-01-19T12:51:31.365Z,8.82
2018-01-19T12:53:59.488Z,9.20
2018-01-19T12:56:27.549Z,8.40
2018-01-19T12:58:55.627Z,9.70
2018-01-19T13:01:23.698Z,9.55
2018-01-19T13:03:51.770Z,7.18
2018-01-19T13:06:19.837Z,8.88
2018-01-19T13:08:47.900Z,8.77
2018-01-19T13:11:15.976Z,7.22
2018-01-19T13:13:44.059Z,9.30
2018-01-19T13:16:12.117Z,7.30
2018-01-19T13:18:40.244Z,7.97
2018-01-19T13:21:08.317Z,8.40
2018-01-19T13:23:36.383Z,7.85
2018-01-19T13:26:04.442Z,8.15
2018-01-19T13:28:32.509Z,7.15
2018-01-19T13:31:00.578Z,7.25
2018-01-19T13:33:28.645Z,5.50
2018-01-19T13:35:56.709Z,5.22
2018-01-19T13:38:24.778Z,6.90
2018-01-19T13:40:52.845Z,6.00
2018-01-19T13:43:20.906Z,6.50
2018-01-19T13:45:48.996Z,6.80
2018-01-19T13:48:17.062Z,7.03
2018-01-19T13:50:45.133Z,8.00
2018-01-19T13:53:13.218Z,7.37
2018-01-19T13:55:41.295Z,8.18
2018-01-19T13:58:09.366Z,7.00
2018-01-19T14:00:37.443Z,8.25
2018-01-19T14:03:05.497Z,7.53
2018-01-19T14:05:33.622Z,8.75
2018-01-19T14:08:01.694Z,8.80
2018-01-19T14:10:29.760Z,8.75
2018-01-19T14:12:57.818Z,8.80
2018-01-19T14:15:26.651Z,9.02
2018-01-19T14:17:54.721Z,7.85
2018-01-19T14:20:22.795Z,9.07
2018-01-19T14:22:50.866Z,9.77
2018-01-19T14:25:18.939Z,10.20
2018-01-19T14:27:47.013Z,9.38
2018-01-19T14:30:15.987Z,9.52
2018-01-19T14:32:44.105Z,9.02
2018-01-19T14:35:12.130Z,10.02
2018-01-19T14:37:40.188Z,10.05
2018-01-19T14:40:08.263Z,10.52
2018-01-19T14:42:36.375Z,9.57
2018-01-19T14:45:04.450Z,9.90
2018-01-19T14:47:32.534Z,8.57
2018-01-19T14:50:01.363Z,10.27
2018-01-19T14:52:29.446Z,10.50
2018-01-19T14:54:57.514Z,9.38
2018-01-19T14:57:25.586Z,9.13
2018-01-19T14:59:53.651Z,9.77
2018-01-19T15:02:21.718Z,9.32
2018-01-19T15:04:49.791Z,8.82
2018-01-19T15:07:17.867Z,8.93
2018-01-19T15:09:45.935Z,9.02
2018-01-19T15:12:14.025Z,9.95
2018-01-19T15:14:42.107Z,10.68
2018-01-19T15:17:10.195Z,9.13
2018-01-19T15:19:38.256Z,9.57
2018-01-19T15:22:06.322Z,7.97
2018-01-19T15:24:34.394Z,9.30
2018-01-19T15:27:02.451Z,8.43
2018-01-19T15:29:30.522Z,7.90
2018-01-19T15:31:58.590Z,8.15
2018-01-19T15:34:26.669Z,10.10
2018-01-19T15:36:54.805Z,7.05
2018-01-19T15:39:22.907Z,8.77
2018-01-19T15:41:50.977Z,8.63
2018-01-19T15:44:19.055Z,11.43
2018-01-19T15:46:47.222Z,11.48
2018-01-19T15:49:15.282Z,10.98
2018-01-19T15:51:43.353Z,11.07
2018-01-19T15:54:11.430Z,12.13
2018-01-19T15:56:39.677Z,9.10
2018-01-19T15:59:07.746Z,9.77
2018-01-19T16:01:35.823Z,8.90
2018-01-19T16:04:03.879Z,7.25
2018-01-19T16:06:31.950Z,6.97
2018-01-19T16:09:00.019Z,8.10
2018-01-19T16:11:28.104Z,8.05
2018-01-19T16:13:56.179Z,6.55
2018-01-19T16:16:24.260Z,7.85
2018-01-19T16:18:52.318Z,6.37
2018-01-19T16:21:20.393Z,6.60
2018-01-19T16:23:48.470Z,7.50
2018-01-19T16:26:16.538Z,8.52
2018-01-19T16:28:44.609Z,7.40
2018-01-19T16:31:12.677Z,7.12
2018-01-19T16:33:40.749Z,7.72
2018-01-19T16:36:08.834Z,5.37
2018-01-19T16:38:36.903Z,6.68
2018-01-19T16:41:04.966Z,4.28
2018-01-19T16:43:33.025Z,5.25
2018-01-19T16:46:01.100Z,4.32
2018-01-19T16:48:29.171Z,4.37
2018-01-19T16:50:57.233Z,4.40
2018-01-19T16:53:25.327Z,5.35
2018-01-19T16:55:53.377Z,5.95
2018-01-19T16:58:21.466Z,5.22
2018-01-19T17:00:49.539Z,5.47
2018-01-19T17:03:17.614Z,6.15
2018-01-19T17:05:45.671Z,9.23
2018-01-19T17:08:13.757Z,7.35
2018-01-19T17:10:42.714Z,6.40
2018-01-19T17:13:10.775Z,6.90
2018-01-19T17:15:38.843Z,6.12
2018-01-19T17:18:06.921Z,6.20
2018-01-19T17:20:34.974Z,6.50
2018-01-19T17:23:03.046Z,5.65
2018-01-19T17:25:31.111Z,6.70
2018-01-19T17:27:59.173Z,4.80
2018-01-19T17:30:28.027Z,5.32
2018-01-19T17:32:56.085Z,4.70
2018-01-19T17:35:24.159Z,4.30
2018-01-19T17:37:52.259Z,5.20
2018-01-19T17:40:20.339Z,4.97
2018-01-19T17:42:49.181Z,6.07
2018-01-19T17:45:17.257Z,5.10
2018-01-19T17:47:45.317Z,6.50
2018-01-19T17:50:13.381Z,6.20
2018-01-19T17:52:41.446Z,6.10
2018-01-19T17:55:09.524Z,6.15
2018-01-19T17:57:37.622Z,6.78
2018-01-19T18:00:05.691Z,7.85
2018-01-19T18:02:33.758Z,7.87
2018-01-19T18:05:01.835Z,9.02
2018-01-19T18:07:29.890Z,8.63
2018-01-19T18:09:57.962Z,9.25
2018-01-19T18:12:26.027Z,9.40
2018-01-19T18:14:54.102Z,9.38
2018-01-19T18:17:22.162Z,11.00
2018-01-19T18:19:50.238Z,9.23
2018-01-19T18:22:18.298Z,9.55
2018-01-19T18:24:46.362Z,9.13
2018-01-19T18:27:14.430Z,10.73
2018-01-19T18:29:42.534Z,11.77
2018-01-19T18:32:10.612Z,12.25
2018-01-19T18:34:38.678Z,12.77
2018-01-19T18:37:06.741Z,11.20
2018-01-19T18:39:34.818Z,10.43
2018-01-19T18:42:02.881Z,9.70
2018-01-19T18:44:30.947Z,7.30
2018-01-19T18:46:59.011Z,7.68
2018-01-19T18:49:27.071Z,5.93
2018-01-19T18:51:55.150Z,7.40
2018-01-19T18:54:23.215Z,6.50
2018-01-19T18:56:51.280Z,7.30
2018-01-19T18:59:19.343Z,7.93
2018-01-19T19:01:47.405Z,7.72
2018-01-19T19:04:15.492Z,8.10
2018-01-19T19:06:43.551Z,8.35
2018-01-19T19:09:11.609Z,7.70
2018-01-19T19:11:39.683Z,8.05
2018-01-19T19:14:07.747Z,8.00
2018-01-19T19:16:35.815Z,8.40
2018-01-19T19:19:04.651Z,8.00
2018-01-19T19:21:32.714Z,8.10
2018-01-19T19:24:00.782Z,9.38
2018-01-19T19:26:28.850Z,9.00
2018-01-19T19:28:56.932Z,8.63
2018-01-19T19:31:24.998Z,9.38
2018-01-19T19:33:53.073Z,10.20
2018-01-19T19:36:21.220Z,10.32
2018-01-19T19:38:49.295Z,10.90
2018-01-19T19:41:17.366Z,11.70
2018-01-19T19:43:45.435Z,11.43
2018-01-19T19:46:13.510Z,12.05
2018-01-19T19:48:42.315Z,11.60
2018-01-19T19:51:10.390Z,12.15
2018-01-19T19:53:38.454Z,12.57
2018-01-19T19:56:06.584Z,11.80
2018-01-19T19:58:34.654Z,13.32
2018-01-19T20:01:02.720Z,12.23
2018-01-19T20:03:31.551Z,15.13
2018-01-19T20:05:59.638Z,16.10
2018-01-19T20:08:27.755Z,13.85
2018-01-19T20:10:56.585Z,14.82
2018-01-19T20:13:25.474Z,15.27
2018-01-19T20:15:53.545Z,16.30
2018-01-19T20:18:21.610Z,15.98
2018-01-19T20:20:49.689Z,17.70
2018-01-19T20:23:17.769Z,16.87
2018-01-19T20:25:45.846Z,15.85
2018-01-19T20:28:13.924Z,15.38
2018-01-19T20:30:41.998Z,14.80
2018-01-19T20:33:10.064Z,14.30
2018-01-19T20:35:38.148Z,14.75
2018-01-19T20:38:06.205Z,15.05
2018-01-19T20:40:34.277Z,17.02
2018-01-19T20:43:02.371Z,14.55
2018-01-19T20:45:31.197Z,15.02
2018-01-19T20:47:59.275Z,15.90
2018-01-19T20:50:27.346Z,13.52
2018-01-19T20:52:55.417Z,14.18
2018-01-19T20:55:23.478Z,14.23
2018-01-19T20:57:51.546Z,15.07
2018-01-19T21:00:19.632Z,14.65
2018-01-19T21:02:47.714Z,14.15
2018-01-19T21:05:15.787Z,14.48
2018-01-19T21:07:43.876Z,16.02
2018-01-19T21:10:11.941Z,14.20
2018-01-19T21:12:40.100Z,14.52
2018-01-19T21:15:08.163Z,14.13
2018-01-19T21:17:36.295Z,16.25
2018-01-19T21:20:04.694Z,14.05
2018-01-19T21:22:32.767Z,14.40
2018-01-19T21:25:00.830Z,16.17
2018-01-19T21:27:28.890Z,14.80
2018-01-19T21:29:56.979Z,14.07
2018-01-19T21:32:25.089Z,16.23
2018-01-19T21:34:53.158Z,15.57
2018-01-19T21:37:21.231Z,15.02
2018-01-19T21:39:49.302Z,14.35
2018-01-19T21:42:17.371Z,14.95
2018-01-19T21:44:45.443Z,14.32
2018-01-19T21:47:13.505Z,14.75
2018-01-19T21:49:41.606Z,13.73
2018-01-19T21:52:10.443Z,15.20
2018-01-19T21:54:38.519Z,15.50
2018-01-19T21:57:06.594Z,13.95
2018-01-19T21:59:34.662Z,14.65
2018-01-19T22:02:02.729Z,15.18
2018-01-19T22:04:30.801Z,16.23
2018-01-19T22:06:58.861Z,14.10
2018-01-19T22:09:26.931Z,16.10
2018-01-19T22:11:54.994Z,13.27
2018-01-19T22:14:23.077Z,13.90
2018-01-19T22:16:51.150Z,15.13
2018-01-19T22:19:19.217Z,16.83
2018-01-19T22:21:47.289Z,14.27
2018-01-19T22:24:15.359Z,15.40
2018-01-19T22:26:43.430Z,15.50
2018-01-19T22:29:11.499Z,15.68
2018-01-19T22:31:39.565Z,16.02
2018-01-19T22:34:07.637Z,16.10
2018-01-19T22:36:35.719Z,15.50
2018-01-19T22:39:03.781Z,17.55
2018-01-19T22:41:31.854Z,16.58
2018-01-19T22:43:59.926Z,15.88
2018-01-19T22:46:28.000Z,15.70
2018-01-19T22:48:56.071Z,17.30
2018-01-19T22:51:24.145Z,15.15
2018-01-19T22:53:52.218Z,16.48
2018-01-19T22:56:20.294Z,16.30
2018-01-19T22:58:48.359Z,15.38
2018-01-19T23:01:16.426Z,16.17
2018-01-19T23:03:44.519Z,16.98
2018-01-19T23:06:12.595Z,17.10
2018-01-19T23:08:40.665Z,17.75
2018-01-19T23:11:09.502Z,18.20
2018-01-19T23:13:37.598Z,17.70
2018-01-19T23:16:05.668Z,17.25
2018-01-19T23:18:33.734Z,17.02
2018-01-19T23:21:01.843Z,17.50
2018-01-19T23:23:30.682Z,19.40
2018-01-19T23:25:58.739Z,19.25
2018-01-19T23:28:26.825Z,17.42
2018-01-19T23:30:54.899Z,17.60
2018-01-19T23:33:22.955Z,16.65
2018-01-19T23:35:51.031Z,15.93
2018-01-19T23:38:19.103Z,15.50
2018-01-19T23:40:47.179Z,15.30
2018-01-19T23:43:15.250Z,15.13
2018-01-19T23:45:43.333Z,16.20
2018-01-19T23:48:11.412Z,15.50
2018-01-19T23:50:39.476Z,15.65
2018-01-19T23:53:07.542Z,14.73
2018-01-19T23:55:35.630Z,15.48
2018-01-19T23:58:03.686Z,16.33
